Yuzhno-Sakhalinsk Airport
UHSS : now visible

Airfield :











YOU CAN JOIN US ON...

 
LOGIN :

Register | Disclaimer

   EN    FR    IT 

 









Legend :    VFR   Marginal VFR   IFR   Intensive IFR   Very Intensive IFR
Visi :
Ceiling :
>= 8 km
>= 3000ft
5 to 8 km
1000 to 3000 ft
1500m to 5 km
500 to 1000 ft
800 to 1500m
200 to 500 ft
< 800m
< 200 ft
Symbols :   Thunderstorms  Fog  Heavy snow  Heavy precipitations  Wind > 20 kt






- Airport Elevation : 59 ft
- IATA code : UUS


UHSS - Yuzhno-Sakhalinsk

CURRENT METAR :
  • 282230Z 36006MPS 9999 BKN026 06/03 Q1007 R01/70D NOSIG RMK MT OBSC QFE754/1005

EXPIRED METARs :
  • 282200Z 35006MPS 9999 BKN026 05/02 Q1007 R01/70D NOSIG RMK MT OBSC QFE754/1005
  • 282130Z 36006MPS 9999 BKN033 05/02 Q1007 R01/70D NOSIG RMK MT OBSC QFE754/1006
  • 282100Z 35005MPS 9999 BKN033 05/02 Q1008 R01/CLRD70 NOSIG RMK MT OBSC QFE755/1006
  • 282030Z 35004MPS 9999 BKN033 04/02 Q1008 R01/CLRD70 NOSIG RMK MT OBSC QFE755/1006
  • 282000Z 35004MPS 9999 BKN033 04/02 Q1008 R01/70D NOSIG RMK MT OBSC QFE755/1006
  • 281930Z 36005MPS 9999 BKN022 04/02 Q1007 R01/70D NOSIG RMK MT OBSC QFE754/1006
  • 281900Z 35005MPS 9999 BKN040 03/02 Q1008 R01/70D NOSIG RMK QFE754/1006

TAF TAF UHSS
Valid from the 28 at 21:00 until the 30 at 03:00 UTC


282000Z 2821/3003 35007MPS 9999 BKN030CB
TEMPO 2821/2924 BKN007 BKN016CB
BECMG 2907/2909 32003MPS
UHSS FIR / Asia



MET'MAP, your aeronautical weather chart ! - Copyright ORBIFLY December 2007 - Disclaimer

ORBIFLY MET'MAP TEAM :

Programming & Development : Alexandra Zaïnal
Original concept : Baudouin d'Aumeries
Technical & hardware support : Manuel Goepfert
Assistance : Marc-Olivier Méhu




SOURCES & CREDITS :

   NOAA       Earth
Advisory